Time;durP1;ratioP1;P1;durP2;ratioP2;P2;SDS_P1;SDS_P2;PMS_P1;PMS_P2;Temp;Humidity;BMP_temperature;BMP_pressure;BME280_temperature;BME280_humidity;BME280_pressure;Samples;Min_cycle;Max_cycle;Signal;HPM_P1;HPM_P2
2021/09/03 00:00:23;;;;;;;6.47;3.88;;;22.70;57.00;;;;;;5050877;28;20528;-59
2021/09/03 00:02:49;;;;;;;5.47;3.95;;;22.70;56.90;;;;;;5050745;28;20067;-59
2021/09/03 00:05:17;;;;;;;4.53;3.67;;;22.70;56.90;;;;;;5050463;28;20036;-59
2021/09/03 00:07:44;;;;;;;5.45;3.83;;;22.70;56.90;;;;;;5050239;28;20116;-59
2021/09/03 00:10:12;;;;;;;5.65;3.83;;;22.60;56.70;;;;;;5051129;28;20039;-59
2021/09/03 00:12:38;;;;;;;7.47;4.18;;;22.60;56.90;;;;;;5050271;28;20048;-59
2021/09/03 00:15:10;;;;;;;6.22;4.22;;;22.60;56.90;;;;;;5051636;28;20025;-58
2021/09/03 00:17:36;;;;;;;5.22;3.70;;;22.60;56.90;;;;;;5051228;28;20025;-58
2021/09/03 00:20:02;;;;;;;8.05;3.90;;;22.60;56.90;;;;;;5051005;28;20029;-59
2021/09/03 00:22:28;;;;;;;5.30;4.15;;;22.60;56.80;;;;;;5051921;28;20362;-58
2021/09/03 00:24:54;;;;;;;5.82;4.13;;;22.70;57.00;;;;;;5050750;28;20031;-58
2021/09/03 00:27:19;;;;;;;5.03;4.00;;;22.60;56.90;;;;;;5051519;28;20045;-58
2021/09/03 00:29:45;;;;;;;5.95;3.60;;;22.60;56.80;;;;;;5050662;28;20043;-58
2021/09/03 00:32:10;;;;;;;4.75;3.95;;;22.70;56.90;;;;;;5042461;28;20035;-58
2021/09/03 00:34:36;;;;;;;5.10;4.00;;;22.60;56.80;;;;;;5050995;28;20473;-58
2021/09/03 00:37:02;;;;;;;4.80;4.00;;;22.60;56.90;;;;;;5050454;28;20079;-59
2021/09/03 00:39:28;;;;;;;6.00;4.05;;;22.70;56.80;;;;;;5051519;28;20489;-59
2021/09/03 00:41:53;;;;;;;4.72;3.88;;;22.70;56.80;;;;;;5050708;28;20037;-59
2021/09/03 00:44:19;;;;;;;5.32;3.92;;;22.60;56.80;;;;;;5048714;28;20452;-58
2021/09/03 00:46:45;;;;;;;5.55;3.90;;;22.60;56.90;;;;;;5050386;28;20029;-58
2021/09/03 00:49:10;;;;;;;4.90;3.65;;;22.60;56.80;;;;;;5051370;28;20032;-58
2021/09/03 00:51:37;;;;;;;5.20;4.13;;;22.70;56.90;;;;;;5050993;28;20048;-58
2021/09/03 00:54:03;;;;;;;4.93;4.03;;;22.60;56.80;;;;;;5048008;28;20052;-58
2021/09/03 00:56:29;;;;;;;4.95;4.07;;;22.60;56.80;;;;;;5049423;28;20067;-58
2021/09/03 00:58:54;;;;;;;6.90;4.15;;;22.60;56.80;;;;;;5050129;28;20359;-58
2021/09/03 01:01:21;;;;;;;5.22;3.80;;;22.60;56.80;;;;;;5050937;28;20056;-58
2021/09/03 01:03:47;;;;;;;8.25;3.95;;;22.60;56.80;;;;;;5050106;28;20025;-58
2021/09/03 01:06:13;;;;;;;6.07;4.18;;;22.60;56.80;;;;;;5050775;28;20459;-57
2021/09/03 01:08:39;;;;;;;7.15;4.15;;;22.60;56.70;;;;;;5050956;28;20044;-58
2021/09/03 01:11:04;;;;;;;4.90;3.78;;;22.60;56.70;;;;;;5049414;28;20033;-58
2021/09/03 01:13:30;;;;;;;4.60;3.60;;;22.60;56.80;;;;;;5050987;28;20099;-58
2021/09/03 01:15:56;;;;;;;4.95;3.20;;;22.60;56.80;;;;;;5050205;28;20029;-57
2021/09/03 01:18:21;;;;;;;7.38;4.40;;;22.60;56.80;;;;;;5050867;28;20116;-58
2021/09/03 01:20:47;;;;;;;4.88;4.00;;;22.60;56.80;;;;;;5050334;28;20036;-58
2021/09/03 01:23:16;;;;;;;4.43;3.42;;;22.60;56.70;;;;;;5050909;28;20036;-58
2021/09/03 01:25:42;;;;;;;5.10;3.90;;;22.60;56.70;;;;;;5049603;28;20469;-58
2021/09/03 01:28:08;;;;;;;4.38;3.50;;;22.60;56.70;;;;;;5051174;28;20048;-58
2021/09/03 01:30:33;;;;;;;5.07;3.63;;;22.60;56.70;;;;;;5049668;28;20080;-58
2021/09/03 01:32:59;;;;;;;4.20;3.40;;;22.60;56.70;;;;;;5052701;28;20017;-58
2021/09/03 01:35:25;;;;;;;4.88;3.72;;;22.60;56.70;;;;;;5054399;28;20505;-58
2021/09/03 01:37:51;;;;;;;5.72;3.75;;;22.60;56.70;;;;;;5053924;28;20052;-58
2021/09/03 01:40:16;;;;;;;5.38;4.43;;;22.60;56.60;;;;;;5054522;28;20151;-58
2021/09/03 01:42:42;;;;;;;7.28;3.92;;;22.60;56.70;;;;;;5051333;28;20020;-60
2021/09/03 01:45:08;;;;;;;4.60;3.45;;;22.60;56.60;;;;;;5054745;28;20029;-57
2021/09/03 01:47:34;;;;;;;6.28;3.70;;;22.60;56.70;;;;;;5054034;28;20033;-58
2021/09/03 01:50:00;;;;;;;5.22;3.60;;;22.60;56.60;;;;;;5053639;28;20059;-58
2021/09/03 01:52:26;;;;;;;6.05;4.00;;;22.60;56.60;;;;;;5054446;28;20111;-57
2021/09/03 01:54:51;;;;;;;5.68;4.10;;;22.60;56.60;;;;;;5053466;28;20033;-58
2021/09/03 01:57:17;;;;;;;5.32;3.88;;;22.60;56.60;;;;;;5054255;28;20048;-57
2021/09/03 01:59:43;;;;;;;5.25;3.92;;;22.60;56.60;;;;;;5052813;28;20057;-58
2021/09/03 02:02:08;;;;;;;5.30;4.22;;;22.60;56.50;;;;;;5053757;28;20124;-57
2021/09/03 02:04:34;;;;;;;5.18;4.10;;;22.60;56.60;;;;;;5054159;28;20028;-58
2021/09/03 02:07:00;;;;;;;5.93;4.00;;;22.60;56.50;;;;;;5053367;28;20033;-58
2021/09/03 02:09:25;;;;;;;5.05;3.70;;;22.60;56.60;;;;;;5054144;28;20386;-58
2021/09/03 02:11:51;;;;;;;5.32;3.90;;;22.60;57.20;;;;;;5053149;28;20040;-58
2021/09/03 02:14:17;;;;;;;5.35;3.55;;;22.60;56.60;;;;;;5052660;28;20029;-58
2021/09/03 02:16:43;;;;;;;4.88;4.13;;;22.60;56.50;;;;;;5053426;28;20033;-58
2021/09/03 02:19:09;;;;;;;4.78;3.58;;;22.50;56.40;;;;;;5054059;28;20377;-58
2021/09/03 02:21:35;;;;;;;4.53;3.42;;;22.50;56.30;;;;;;5052575;28;20107;-58
2021/09/03 02:24:01;;;;;;;4.38;3.17;;;22.60;56.50;;;;;;5053242;28;20230;-58
2021/09/03 02:26:26;;;;;;;5.47;3.88;;;22.60;56.50;;;;;;5053756;28;20417;-58
2021/09/03 02:28:52;;;;;;;5.85;3.65;;;22.50;56.30;;;;;;5044043;28;20040;-58
2021/09/03 02:31:18;;;;;;;5.18;4.10;;;22.50;56.30;;;;;;5052479;28;20107;-57
2021/09/03 02:33:43;;;;;;;4.80;3.92;;;22.50;56.30;;;;;;5051704;28;20170;-58
2021/09/03 02:36:10;;;;;;;4.78;3.70;;;22.60;56.50;;;;;;5052079;28;20028;-57
2021/09/03 02:38:35;;;;;;;4.57;3.80;;;22.50;56.30;;;;;;5052307;28;20033;-58
2021/09/03 02:41:01;;;;;;;4.38;3.47;;;22.50;56.30;;;;;;5050024;28;20500;-58
2021/09/03 02:43:26;;;;;;;5.90;3.85;;;22.50;56.30;;;;;;5047859;28;20104;-58
2021/09/03 02:45:52;;;;;;;5.97;3.90;;;22.50;56.30;;;;;;5049365;28;20122;-58
2021/09/03 02:48:18;;;;;;;6.85;4.30;;;22.50;56.30;;;;;;5050645;28;20482;-58
2021/09/03 02:50:44;;;;;;;5.40;4.00;;;22.50;56.30;;;;;;5050967;28;20106;-58
2021/09/03 02:53:10;;;;;;;8.85;4.22;;;22.50;56.30;;;;;;5051453;28;20156;-58
2021/09/03 02:55:35;;;;;;;4.32;3.85;;;22.50;56.30;;;;;;5052118;28;20029;-58
2021/09/03 02:58:01;;;;;;;5.38;3.80;;;22.50;56.20;;;;;;5050866;28;20025;-58
2021/09/03 03:00:27;;;;;;;4.93;3.67;;;22.50;56.20;;;;;;5050442;28;20052;-58
2021/09/03 03:02:53;;;;;;;5.50;4.10;;;22.50;56.20;;;;;;5050761;28;20029;-58
2021/09/03 03:05:22;;;;;;;6.25;3.88;;;22.50;56.20;;;;;;5050511;28;20479;-58
2021/09/03 03:07:48;;;;;;;5.97;3.95;;;22.50;56.10;;;;;;5050820;28;20032;-58
2021/09/03 03:10:14;;;;;;;5.88;4.35;;;22.50;56.10;;;;;;5051254;28;20442;-58
2021/09/03 03:12:40;;;;;;;6.25;4.15;;;22.50;56.10;;;;;;5051377;28;20132;-58
2021/09/03 03:15:06;;;;;;;6.85;4.35;;;22.50;56.10;;;;;;5050964;28;20029;-57
2021/09/03 03:17:32;;;;;;;6.93;4.15;;;22.50;56.10;;;;;;5051567;28;20032;-57
2021/09/03 03:19:58;;;;;;;5.85;3.95;;;22.50;56.00;;;;;;5050323;28;20025;-57
2021/09/03 03:22:23;;;;;;;5.38;3.90;;;22.50;56.00;;;;;;5050054;28;20031;-58
2021/09/03 03:24:49;;;;;;;4.45;3.60;;;22.50;56.00;;;;;;5050737;28;20033;-57
2021/09/03 03:27:15;;;;;;;6.00;3.80;;;22.50;56.00;;;;;;5050947;28;20390;-58
2021/09/03 03:29:40;;;;;;;6.47;4.50;;;22.50;56.10;;;;;;5051332;28;20033;-58
2021/09/03 03:32:06;;;;;;;6.03;3.92;;;22.50;56.10;;;;;;5050594;28;20391;-58
2021/09/03 03:34:32;;;;;;;5.75;3.55;;;22.50;56.10;;;;;;5050634;28;20064;-58
2021/09/03 03:36:57;;;;;;;5.05;3.65;;;22.50;56.00;;;;;;5049144;28;20044;-58
2021/09/03 03:39:23;;;;;;;4.60;3.65;;;22.50;56.10;;;;;;5051080;28;20446;-58
2021/09/03 03:41:50;;;;;;;5.65;4.10;;;22.50;56.00;;;;;;5050122;28;20036;-58
2021/09/03 03:44:15;;;;;;;5.47;4.32;;;22.50;56.00;;;;;;5050884;28;20352;-59
2021/09/03 03:46:41;;;;;;;5.15;4.03;;;22.50;56.00;;;;;;5050837;28;20059;-58
2021/09/03 03:49:06;;;;;;;6.28;4.22;;;22.50;55.90;;;;;;5050098;28;20029;-58
2021/09/03 03:51:32;;;;;;;5.28;4.32;;;22.40;55.80;;;;;;5050904;28;20033;-58
2021/09/03 03:53:58;;;;;;;8.50;4.80;;;22.50;55.80;;;;;;5049754;28;20082;-58
2021/09/03 03:56:23;;;;;;;5.65;4.18;;;22.50;55.80;;;;;;5050428;28;20109;-58
2021/09/03 03:58:49;;;;;;;6.68;3.90;;;22.50;55.90;;;;;;5049711;28;20035;-58
2021/09/03 04:01:15;;;;;;;6.53;3.97;;;22.50;55.90;;;;;;5050256;28;20049;-58
2021/09/03 04:03:40;;;;;;;5.65;4.22;;;22.50;55.80;;;;;;5050439;28;20039;-58
2021/09/03 04:06:06;;;;;;;5.68;4.07;;;22.50;55.80;;;;;;5048669;28;20378;-58
2021/09/03 04:08:32;;;;;;;5.03;3.83;;;22.40;55.70;;;;;;5049789;28;20051;-58
2021/09/03 04:10:57;;;;;;;5.88;3.97;;;22.40;55.70;;;;;;5049853;28;20237;-58
2021/09/03 04:13:23;;;;;;;5.82;4.10;;;22.50;55.70;;;;;;5050436;28;20043;-58
2021/09/03 04:15:49;;;;;;;4.85;3.83;;;22.40;55.60;;;;;;5049690;28;20029;-58
2021/09/03 04:18:14;;;;;;;5.70;4.07;;;22.50;55.70;;;;;;5050424;28;20120;-58
2021/09/03 04:20:40;;;;;;;5.60;3.63;;;22.40;56.20;;;;;;5050585;28;20179;-58
2021/09/03 04:23:08;;;;;;;6.47;4.50;;;22.40;55.50;;;;;;5049150;28;20469;-58
2021/09/03 04:25:34;;;;;;;4.82;3.83;;;22.40;55.50;;;;;;5050288;28;20159;-58
2021/09/03 04:28:00;;;;;;;5.13;3.50;;;22.40;55.50;;;;;;5049495;28;20443;-58
2021/09/03 04:30:25;;;;;;;5.82;3.80;;;22.40;55.50;;;;;;5050436;28;20036;-57
2021/09/03 04:32:51;;;;;;;5.88;4.20;;;22.40;55.50;;;;;;5049412;28;20041;-58
2021/09/03 04:35:17;;;;;;;6.07;4.25;;;22.40;55.60;;;;;;5049815;28;20454;-58
2021/09/03 04:37:49;;;;;;;5.88;3.88;;;22.40;55.60;;;;;;5049277;28;20029;-58
2021/09/03 04:40:17;;;;;;;6.38;4.43;;;22.40;55.50;;;;;;5049972;28;20108;-58
2021/09/03 04:42:42;;;;;;;5.68;4.18;;;22.40;55.50;;;;;;5048269;28;20032;-58
2021/09/03 04:45:09;;;;;;;5.07;4.25;;;22.40;55.50;;;;;;5050518;28;20441;-58
2021/09/03 04:47:35;;;;;;;7.43;3.92;;;22.40;55.50;;;;;;5051045;28;20108;-58
2021/09/03 04:50:00;;;;;;;5.93;4.22;;;22.40;55.30;;;;;;5050515;28;20033;-58
2021/09/03 04:52:26;;;;;;;5.22;3.92;;;22.40;55.30;;;;;;5051497;28;20037;-58
2021/09/03 04:54:52;;;;;;;5.00;3.85;;;22.40;55.30;;;;;;5050019;28;20087;-58
2021/09/03 04:57:17;;;;;;;6.20;4.18;;;22.40;55.30;;;;;;5051452;28;20025;-58
2021/09/03 04:59:43;;;;;;;6.32;4.47;;;22.40;55.40;;;;;;5050606;28;20029;-57
2021/09/03 05:02:09;;;;;;;4.90;3.80;;;22.40;55.40;;;;;;5050395;28;20033;-58
2021/09/03 05:04:34;;;;;;;5.32;3.90;;;22.40;55.30;;;;;;5051278;28;20482;-58
2021/09/03 05:07:00;;;;;;;6.28;4.05;;;22.40;55.30;;;;;;5051661;28;20040;-58
2021/09/03 05:09:25;;;;;;;5.63;3.50;;;22.40;55.30;;;;;;5054901;28;20029;-58
2021/09/03 05:11:51;;;;;;;5.78;3.72;;;22.40;55.40;;;;;;5054482;28;20033;-58
2021/09/03 05:14:17;;;;;;;4.68;3.40;;;22.40;55.40;;;;;;5053853;28;20128;-58
2021/09/03 05:16:42;;;;;;;5.97;4.13;;;22.40;55.30;;;;;;5055349;28;20029;-58
2021/09/03 05:19:08;;;;;;;5.60;3.80;;;22.40;55.20;;;;;;5054661;28;20032;-58
2021/09/03 05:21:34;;;;;;;5.60;3.88;;;22.40;55.20;;;;;;5053604;28;20526;-57
2021/09/03 05:24:00;;;;;;;5.88;4.15;;;22.40;55.20;;;;;;5053732;28;20075;-58
2021/09/03 05:26:26;;;;;;;5.20;3.78;;;22.40;55.20;;;;;;5054738;28;20028;-58
2021/09/03 05:28:52;;;;;;;5.78;3.70;;;22.40;55.20;;;;;;5053621;28;20509;-58
2021/09/03 05:31:18;;;;;;;5.50;4.03;;;22.40;55.10;;;;;;5054467;28;20040;-58
2021/09/03 05:33:43;;;;;;;5.78;3.95;;;22.40;55.20;;;;;;5053982;28;20025;-58
2021/09/03 05:36:09;;;;;;;7.88;4.03;;;22.40;55.20;;;;;;5053943;28;20029;-57
2021/09/03 05:38:35;;;;;;;5.20;3.70;;;22.40;55.20;;;;;;5054379;28;20035;-58
2021/09/03 05:41:00;;;;;;;4.78;3.70;;;22.40;55.30;;;;;;5053255;28;20029;-58
2021/09/03 05:43:26;;;;;;;6.85;4.20;;;22.40;55.30;;;;;;5054676;28;20025;-58
2021/09/03 05:45:51;;;;;;;5.53;4.10;;;22.40;55.30;;;;;;5052882;28;20055;-58
2021/09/03 05:48:17;;;;;;;5.10;3.95;;;22.40;55.50;;;;;;5053995;28;20127;-58
2021/09/03 05:50:43;;;;;;;4.63;3.53;;;22.40;55.50;;;;;;5054348;28;20074;-58
2021/09/03 05:53:09;;;;;;;5.30;3.45;;;22.50;55.60;;;;;;5053069;28;20083;-66
2021/09/03 05:55:34;;;;;;;9.90;4.28;;;22.50;55.90;;;;;;5054146;28;20023;-66
2021/09/03 05:58:00;;;;;;;11.40;5.13;;;22.60;55.30;;;;;;5052064;28;20036;-68
2021/09/03 06:00:26;;;;;;;8.43;5.43;;;22.60;53.60;;;;;;5044410;28;20049;-68
2021/09/03 06:02:51;;;;;;;15.00;5.88;;;22.50;53.60;;;;;;5040358;28;20037;-66
2021/09/03 06:05:17;;;;;;;15.98;5.28;;;22.50;53.10;;;;;;5043099;28;20021;-68
2021/09/03 06:07:44;;;;;;;11.40;5.93;;;22.40;53.70;;;;;;5053584;28;20025;-68
2021/09/03 06:10:10;;;;;;;8.85;5.28;;;22.40;53.40;;;;;;5052350;28;20033;-65
2021/09/03 06:12:37;;;;;;;9.35;5.18;;;22.40;56.50;;;;;;5052178;28;20040;-66
2021/09/03 06:15:07;;;;;;;11.82;4.93;;;22.50;54.20;;;;;;5051823;28;20043;-67
2021/09/03 06:17:33;;;;;;;11.20;4.60;;;22.50;55.10;;;;;;5051719;28;20375;-64
2021/09/03 06:19:58;;;;;;;9.80;4.40;;;22.60;56.00;;;;;;5050076;28;20041;-65
2021/09/03 06:22:24;;;;;;;12.35;3.90;;;22.70;57.40;;;;;;5052673;28;20459;-63
2021/09/03 06:24:50;;;;;;;9.77;4.57;;;22.70;57.30;;;;;;5051820;28;20021;-64
2021/09/03 06:27:16;;;;;;;10.73;4.82;;;22.70;57.70;;;;;;5052119;28;20029;-65
2021/09/03 06:29:42;;;;;;;9.60;6.78;;;22.70;57.80;;;;;;5052710;28;20383;-65
2021/09/03 06:32:10;;;;;;;10.20;6.72;;;22.10;54.00;;;;;;5051665;28;20099;-64
2021/09/03 06:34:39;;;;;;;11.70;6.90;;;21.00;56.80;;;;;;5051703;28;20029;-63
2021/09/03 06:37:05;;;;;;;9.07;6.43;;;20.40;58.80;;;;;;5051834;28;20115;-64
2021/09/03 06:39:33;;;;;;;10.45;7.28;;;20.10;59.90;;;;;;5052115;28;20040;-65
2021/09/03 06:41:58;;;;;;;11.85;7.00;;;20.00;60.40;;;;;;5051646;28;20036;-65
2021/09/03 06:44:24;;;;;;;13.27;6.63;;;19.90;60.50;;;;;;5051121;28;20033;-65
2021/09/03 06:46:50;;;;;;;10.10;7.10;;;19.90;60.80;;;;;;5051041;28;20036;-64
2021/09/03 06:49:15;;;;;;;11.82;7.32;;;19.90;60.80;;;;;;5051942;28;20037;-64
2021/09/03 06:51:41;;;;;;;12.93;7.32;;;19.80;61.00;;;;;;5052176;28;20037;-64
2021/09/03 06:54:07;;;;;;;11.18;6.70;;;19.80;61.20;;;;;;5051187;28;20174;-65
2021/09/03 06:56:33;;;;;;;13.60;7.70;;;19.80;61.20;;;;;;5052231;28;20030;-65
2021/09/03 06:59:00;;;;;;;12.38;7.53;;;19.80;61.20;;;;;;5051226;28;20494;-65
2021/09/03 07:01:25;;;;;;;13.13;6.90;;;19.80;61.30;;;;;;5012589;28;1120891;-65
2021/09/03 07:03:51;;;;;;;12.95;7.88;;;19.70;61.30;;;;;;5050271;28;20119;-64
2021/09/03 07:06:17;;;;;;;13.88;7.68;;;19.70;61.70;;;;;;5052437;28;20029;-65
2021/09/03 07:08:42;;;;;;;12.05;7.45;;;19.70;61.60;;;;;;5052392;28;20033;-64
2021/09/03 07:11:08;;;;;;;12.35;7.53;;;19.80;61.60;;;;;;5052020;28;20612;-65
2021/09/03 07:13:35;;;;;;;11.65;7.10;;;19.80;61.70;;;;;;5052741;28;20478;-65
2021/09/03 07:16:01;;;;;;;9.55;6.13;;;19.90;61.40;;;;;;5052021;28;20052;-64
2021/09/03 07:18:27;;;;;;;11.02;6.18;;;20.00;61.20;;;;;;5052469;28;20100;-65
2021/09/03 07:20:52;;;;;;;12.25;6.15;;;20.00;60.80;;;;;;5050670;28;20116;-65
2021/09/03 07:23:18;;;;;;;10.02;6.10;;;20.10;60.90;;;;;;5052649;28;20028;-65
2021/09/03 07:25:44;;;;;;;8.57;6.03;;;20.10;60.70;;;;;;5052166;28;20036;-65
2021/09/03 07:28:09;;;;;;;9.52;5.63;;;20.20;60.20;;;;;;5051833;28;20024;-65
2021/09/03 07:30:35;;;;;;;7.10;5.47;;;20.20;59.90;;;;;;5051592;28;20037;-65
2021/09/03 07:33:01;;;;;;;8.90;5.05;;;20.20;59.90;;;;;;5051263;28;20045;-66
2021/09/03 07:35:26;;;;;;;7.22;5.35;;;20.30;59.60;;;;;;5052395;28;20025;-66
2021/09/03 07:37:52;;;;;;;6.82;4.97;;;20.30;59.50;;;;;;5051227;28;20033;-65
2021/09/03 07:40:18;;;;;;;8.88;5.05;;;20.30;59.50;;;;;;5051170;28;20112;-65
2021/09/03 07:42:44;;;;;;;8.60;4.75;;;20.40;59.70;;;;;;5052181;28;20493;-65
2021/09/03 07:45:10;;;;;;;9.43;5.30;;;20.40;59.60;;;;;;5051359;28;20466;-64
2021/09/03 07:47:35;;;;;;;8.30;5.18;;;20.40;59.70;;;;;;5052025;28;20031;-65
2021/09/03 07:50:02;;;;;;;9.30;5.20;;;20.40;59.60;;;;;;5051049;28;20039;-65
2021/09/03 07:52:27;;;;;;;7.35;4.93;;;20.50;59.30;;;;;;5051768;28;20036;-65
2021/09/03 07:54:53;;;;;;;6.85;4.82;;;20.50;59.00;;;;;;5051228;28;20474;-65
2021/09/03 07:57:18;;;;;;;6.93;5.10;;;20.50;59.10;;;;;;5050633;28;20056;-65
2021/09/03 07:59:44;;;;;;;7.55;5.15;;;20.50;59.30;;;;;;5051810;28;20071;-64
2021/09/03 08:02:10;;;;;;;7.70;5.45;;;20.60;59.20;;;;;;5051222;28;20029;-65
2021/09/03 08:04:35;;;;;;;9.35;5.45;;;20.60;58.80;;;;;;5050158;28;20074;-65
2021/09/03 08:07:01;;;;;;;7.45;4.93;;;20.60;58.90;;;;;;5051085;28;20024;-65
2021/09/03 08:09:27;;;;;;;8.43;5.45;;;20.70;58.80;;;;;;5051876;28;20041;-65
2021/09/03 08:11:53;;;;;;;9.52;5.30;;;20.60;58.90;;;;;;5049773;28;20032;-65
2021/09/03 08:14:18;;;;;;;10.00;5.18;;;20.60;59.10;;;;;;5051572;28;20036;-65
2021/09/03 08:16:44;;;;;;;9.32;5.53;;;20.70;58.80;;;;;;5051610;28;20025;-66
2021/09/03 08:19:10;;;;;;;9.60;5.80;;;20.70;58.50;;;;;;5050139;28;20071;-66
2021/09/03 08:21:36;;;;;;;7.63;5.15;;;20.70;58.50;;;;;;5051762;28;20025;-65
2021/09/03 08:24:02;;;;;;;6.82;4.90;;;20.70;58.00;;;;;;5050870;28;20025;-65
2021/09/03 08:26:28;;;;;;;7.57;5.32;;;20.80;57.80;;;;;;5050965;28;20033;-65
2021/09/03 08:28:54;;;;;;;8.52;5.35;;;20.80;57.40;;;;;;5050641;28;20060;-65
2021/09/03 08:31:19;;;;;;;8.88;5.07;;;20.90;57.40;;;;;;5050216;28;20040;-66
2021/09/03 08:33:45;;;;;;;7.95;4.82;;;20.90;57.10;;;;;;5050121;28;20032;-65
2021/09/03 08:36:11;;;;;;;9.57;5.20;;;20.90;57.10;;;;;;5050901;28;20025;-65
2021/09/03 08:38:37;;;;;;;8.70;5.40;;;20.90;56.80;;;;;;5052563;28;20024;-64
2021/09/03 08:41:03;;;;;;;9.40;5.40;;;21.20;56.50;;;;;;5050457;28;20025;-64
2021/09/03 08:43:29;;;;;;;8.82;4.13;;;21.40;56.20;;;;;;5050786;28;20029;-64
2021/09/03 08:45:55;;;;;;;6.00;4.18;;;21.60;56.00;;;;;;5050570;28;20028;-64
2021/09/03 08:48:22;;;;;;;10.48;4.75;;;21.70;55.80;;;;;;5051352;28;20390;-63
2021/09/03 08:50:50;;;;;;;7.03;4.13;;;21.90;55.80;;;;;;5051306;28;20371;-65
2021/09/03 08:53:17;;;;;;;5.10;3.85;;;21.90;55.60;;;;;;5050453;28;20081;-64
2021/09/03 08:55:48;;;;;;;7.75;4.38;;;22.00;55.50;;;;;;5050135;28;20060;-64
2021/09/03 08:58:14;;;;;;;5.72;3.95;;;22.00;55.60;;;;;;5049723;28;20025;-65
2021/09/03 09:00:41;;;;;;;5.90;3.80;;;22.10;55.70;;;;;;5050174;28;20053;-65
2021/09/03 09:03:13;;;;;;;8.07;4.65;;;22.10;55.60;;;;;;5049652;28;20032;-65
2021/09/03 09:05:54;;;;;;;6.90;4.15;;;22.20;55.70;;;;;;5049461;28;20498;-65
2021/09/03 09:08:22;;;;;;;6.57;3.72;;;22.20;55.60;;;;;;5050695;28;20147;-65
2021/09/03 09:11:17;;;;;;;6.93;3.95;;;22.20;55.70;;;;;;5050876;28;20033;-66
2021/09/03 09:13:45;;;;;;;5.75;4.32;;;22.20;55.60;;;;;;5049876;28;20069;-65
2021/09/03 09:16:16;;;;;;;4.80;3.85;;;22.30;55.60;;;;;;5049710;28;20600;-64
2021/09/03 09:18:49;;;;;;;4.53;3.83;;;22.30;55.70;;;;;;5037249;28;20037;-65
2021/09/03 09:21:31;;;;;;;5.20;4.05;;;22.30;55.70;;;;;;5030528;28;20449;-66
2021/09/03 09:24:08;;;;;;;6.18;4.40;;;22.40;55.80;;;;;;5041995;28;20060;-65
2021/09/03 09:26:54;;;;;;;4.63;3.75;;;22.40;55.70;;;;;;5050917;28;20052;-64
2021/09/03 09:29:37;;;;;;;5.82;4.20;;;22.40;55.80;;;;;;5050144;28;20386;-64
2021/09/03 09:32:07;;;;;;;7.28;4.25;;;22.40;55.80;;;;;;5050320;28;20067;-66
2021/09/03 09:34:38;;;;;;;5.10;4.03;;;22.40;55.90;;;;;;5049333;28;20025;-66
2021/09/03 09:37:10;;;;;;;6.75;3.72;;;22.40;55.80;;;;;;5049710;28;20166;-64
2021/09/03 09:39:57;;;;;;;5.53;3.85;;;22.40;55.90;;;;;;5051121;28;20029;-65
2021/09/03 09:42:27;;;;;;;4.65;3.70;;;22.50;55.90;;;;;;5051019;28;20036;-65
2021/09/03 09:45:05;;;;;;;5.82;4.00;;;22.50;55.90;;;;;;5050338;28;20025;-66
2021/09/03 09:47:31;;;;;;;11.25;4.88;;;22.50;55.90;;;;;;5042769;28;20021;-66
2021/09/03 09:49:57;;;;;;;5.68;4.07;;;22.50;55.90;;;;;;5049606;28;20497;-65
2021/09/03 09:52:36;;;;;;;4.53;3.50;;;22.50;55.90;;;;;;5050910;28;20544;-64
2021/09/03 09:55:04;;;;;;;6.78;4.47;;;22.50;55.90;;;;;;5053601;28;20083;-64
2021/09/03 09:57:33;;;;;;;6.88;3.92;;;22.50;56.00;;;;;;5054282;28;20021;-46
2021/09/03 10:00:02;;;;;;;8.77;4.00;;;22.50;56.20;;;;;;5053827;28;20076;-45
2021/09/03 10:02:29;;;;;;;7.72;4.03;;;22.50;56.10;;;;;;5053224;28;20036;-45
2021/09/03 10:04:57;;;;;;;6.15;4.03;;;22.50;56.00;;;;;;5053567;28;20486;-57
2021/09/03 10:07:24;;;;;;;4.85;3.85;;;22.50;56.20;;;;;;5053409;28;20029;-49
2021/09/03 10:09:50;;;;;;;7.22;4.45;;;22.60;56.00;;;;;;5054141;28;20078;-46
2021/09/03 10:12:16;;;;;;;6.75;3.63;;;22.60;56.00;;;;;;5052853;28;20733;-45
2021/09/03 10:14:42;;;;;;;6.65;4.25;;;22.70;55.80;;;;;;5053423;28;20036;-47
2021/09/03 10:17:10;;;;;;;6.57;3.92;;;22.70;55.90;;;;;;5045237;28;20036;-46
2021/09/03 10:19:37;;;;;;;7.25;4.22;;;22.70;55.80;;;;;;5053960;28;20100;-46
2021/09/03 10:22:08;;;;;;;10.77;3.70;;;22.70;56.00;;;;;;5053019;28;20037;-46
2021/09/03 10:24:35;;;;;;;4.85;3.75;;;22.70;56.00;;;;;;5053813;28;20025;-46
2021/09/03 10:27:02;;;;;;;7.43;3.38;;;22.70;55.90;;;;;;5052841;28;20415;-46
2021/09/03 10:29:34;;;;;;;5.95;4.55;;;22.70;55.90;;;;;;5045482;28;20036;-46
2021/09/03 10:32:12;;;;;;;6.70;4.38;;;22.80;55.80;;;;;;5053133;28;20086;-47
2021/09/03 10:34:41;;;;;;;10.13;4.07;;;22.80;55.80;;;;;;5053640;28;20037;-49
2021/09/03 10:37:18;;;;;;;5.32;4.10;;;22.80;55.70;;;;;;5051681;28;20037;-47
2021/09/03 10:39:51;;;;;;;6.65;3.70;;;22.80;55.70;;;;;;5053191;28;20103;-46
2021/09/03 10:45:08;;;;;;;7.03;4.05;;;22.80;55.80;;;;;;5052547;28;20025;-48
2021/09/03 10:47:47;;;;;;;5.05;3.47;;;22.80;55.80;;;;;;5053329;28;20025;-47
2021/09/03 10:50:23;;;;;;;5.55;4.22;;;22.80;55.70;;;;;;5052399;28;20064;-46
2021/09/03 10:53:04;;;;;;;4.60;3.60;;;22.80;55.80;;;;;;5053198;28;20033;-48
2021/09/03 10:55:55;;;;;;;4.75;3.42;;;22.90;56.00;;;;;;5052544;28;20025;-46
2021/09/03 10:58:39;;;;;;;6.18;4.45;;;22.90;55.90;;;;;;5052048;28;20447;-46
2021/09/03 11:01:11;;;;;;;7.82;4.35;;;22.90;55.80;;;;;;5050595;28;20076;-46
2021/09/03 11:03:46;;;;;;;6.72;4.40;;;22.90;55.80;;;;;;5052293;28;20421;-46
2021/09/03 11:06:16;;;;;;;6.38;4.28;;;22.90;55.80;;;;;;5051750;28;20386;-46
2021/09/03 11:08:46;;;;;;;6.10;3.97;;;23.00;55.80;;;;;;5051476;28;20029;-48
2021/09/03 11:11:32;;;;;;;7.63;3.72;;;23.00;55.90;;;;;;5051748;28;20045;-46
2021/09/03 11:14:00;;;;;;;5.88;3.90;;;23.00;55.90;;;;;;5051662;28;20024;-55
2021/09/03 11:16:36;;;;;;;5.95;4.13;;;23.00;55.70;;;;;;5052702;28;20059;-46
2021/09/03 11:19:16;;;;;;;4.55;3.78;;;23.10;55.70;;;;;;5051680;28;20108;-47
2021/09/03 11:21:44;;;;;;;5.82;3.90;;;23.10;55.60;;;;;;5052718;28;20052;-48
2021/09/03 11:24:13;;;;;;;5.78;4.28;;;23.10;55.60;;;;;;5050504;28;20115;-46
2021/09/03 11:26:40;;;;;;;5.35;3.53;;;23.10;55.60;;;;;;5051322;28;20172;-47
2021/09/03 11:29:19;;;;;;;6.95;4.10;;;23.20;55.60;;;;;;5051628;28;20036;-46
2021/09/03 11:32:20;;;;;;;5.68;3.50;;;23.20;55.70;;;;;;5045814;28;20429;-49
2021/09/03 11:34:55;;;;;;;6.65;3.95;;;23.20;55.80;;;;;;5052270;28;20025;-48
2021/09/03 11:37:38;;;;;;;6.63;4.68;;;23.20;55.60;;;;;;5050791;28;20021;-48
2021/09/03 11:40:11;;;;;;;6.07;3.80;;;23.20;55.50;;;;;;5051505;28;20033;-52
2021/09/03 11:42:46;;;;;;;5.13;3.67;;;23.20;55.50;;;;;;5051983;28;20044;-50
2021/09/03 11:45:17;;;;;;;4.45;3.05;;;23.20;55.50;;;;;;5051190;28;20094;-48
2021/09/03 11:48:02;;;;;;;5.18;3.35;;;23.20;55.60;;;;;;5052211;28;20029;-47
2021/09/03 11:50:28;;;;;;;6.95;3.42;;;23.20;55.60;;;;;;5051901;28;20032;-46
2021/09/03 11:52:55;;;;;;;7.63;4.05;;;23.30;55.40;;;;;;5052390;28;20525;-48
2021/09/03 11:55:21;;;;;;;6.45;3.88;;;23.30;55.60;;;;;;5051267;28;20025;-51
2021/09/03 11:57:55;;;;;;;5.20;3.83;;;23.30;55.70;;;;;;5052289;28;20056;-47
2021/09/03 12:00:27;;;;;;;5.15;3.80;;;23.30;55.50;;;;;;5050274;28;20052;-46
2021/09/03 12:02:53;;;;;;;;;;;23.30;55.60;;;;;;5052194;28;20036;-49
2021/09/03 12:05:19;;;;;;;5.78;3.67;;;23.30;55.70;;;;;;5042036;28;19915;-46
2021/09/03 12:08:02;;;;;;;6.50;3.88;;;23.30;55.70;;;;;;5052084;28;20026;-48
2021/09/03 12:10:36;;;;;;;4.53;3.20;;;23.30;55.70;;;;;;5051634;28;20044;-46
2021/09/03 12:13:10;;;;;;;6.10;4.07;;;23.30;55.50;;;;;;5051205;28;20351;-47
2021/09/03 12:15:36;;;;;;;5.15;3.78;;;23.40;55.40;;;;;;5051177;28;20071;-46
2021/09/03 12:18:06;;;;;;;4.75;3.78;;;23.40;55.50;;;;;;5051080;28;20025;-49
2021/09/03 12:20:32;;;;;;;4.55;3.75;;;23.40;55.50;;;;;;5041964;28;20119;-47
2021/09/03 12:22:58;;;;;;;5.43;4.00;;;23.40;55.40;;;;;;5031987;28;20057;-57
2021/09/03 12:25:34;;;;;;;5.95;3.63;;;23.40;55.40;;;;;;5032049;28;20104;-47
2021/09/03 12:28:12;;;;;;;5.20;4.03;;;23.40;55.50;;;;;;5043289;28;20032;-57
2021/09/03 12:30:39;;;;;;;6.03;4.07;;;23.40;55.50;;;;;;5050256;28;20183;-46
2021/09/03 12:33:45;;;;;;;4.88;3.85;;;23.40;55.60;;;;;;5050291;28;20048;-46
2021/09/03 12:36:12;;;;;;;4.90;3.60;;;23.50;55.50;;;;;;5039018;28;20041;-46
2021/09/03 12:38:43;;;;;;;5.65;3.92;;;23.50;55.50;;;;;;5051427;28;20032;-47
2021/09/03 12:41:18;;;;;;;4.78;3.47;;;23.50;55.20;;;;;;5050878;28;20040;-47
2021/09/03 12:43:49;;;;;;;4.78;3.55;;;23.50;55.30;;;;;;5050468;28;20052;-47
2021/09/03 12:46:16;;;;;;;5.25;3.90;;;23.50;55.40;;;;;;5050472;28;20036;-46
2021/09/03 12:48:45;;;;;;;4.95;3.97;;;23.50;55.40;;;;;;5051078;28;20033;-46
2021/09/03 12:51:21;;;;;;;6.15;3.75;;;23.50;55.50;;;;;;5049318;28;20064;-46